createdAt,value
2022-11-20T20:22:32.693Z,543.90
2022-11-20T20:24:44.174Z,559.92
2022-11-20T20:26:52.352Z,543.44
2022-11-20T20:29:02.739Z,559.91
2022-11-20T20:31:12.462Z,523.80
2022-11-20T20:33:21.651Z,585.99
2022-11-20T20:35:29.748Z,513.55
2022-11-20T20:47:01.146Z,543.68
2022-11-20T20:49:07.978Z,538.66
2022-11-20T20:51:14.735Z,549.93
2022-11-20T20:53:20.818Z,479.77
2022-11-20T20:55:34.032Z,535.90
2022-11-20T20:57:40.597Z,458.87
2022-11-20T20:59:48.994Z,507.01
2022-11-20T21:01:59.853Z,352.21
2022-11-20T21:04:05.845Z,490.47
2022-11-20T21:06:14.764Z,519.18
2022-11-20T21:08:25.584Z,554.91
2022-11-20T21:10:31.497Z,495.24
2022-11-20T21:12:38.825Z,430.98
2022-11-20T21:14:48.202Z,407.93
2022-11-20T21:16:54.257Z,403.75
2022-11-20T21:19:00.258Z,454.81
2022-11-20T21:21:32.369Z,480.69
2022-11-20T21:23:39.969Z,473.72
2022-11-20T21:25:46.040Z,501.09
2022-11-20T21:27:53.707Z,499.69
2022-11-20T21:30:08.881Z,447.68
2022-11-20T21:32:16.099Z,444.26
2022-11-20T21:34:26.094Z,474.17
2022-11-20T21:36:34.970Z,496.57
2022-11-20T21:38:40.704Z,453.95
2022-11-20T21:40:47.428Z,477.55
2022-11-20T21:42:53.329Z,460.90
2022-11-20T21:45:02.712Z,450.56
2022-11-20T21:47:11.624Z,481.49
2022-11-20T21:49:18.492Z,497.63
2022-11-20T21:51:33.268Z,472.92
2022-11-20T21:53:40.754Z,495.80
2022-11-20T21:55:46.706Z,512.30
2022-11-20T21:57:54.825Z,511.06
2022-11-20T22:00:04.112Z,471.28
2022-11-20T22:02:15.928Z,476.78
2022-11-20T22:04:23.099Z,508.87
2022-11-20T22:06:35.890Z,457.19
2022-11-20T22:08:42.562Z,460.45
2022-11-20T22:11:00.853Z,440.84
2022-11-20T22:13:20.111Z,424.96
2022-11-20T22:15:53.567Z,464.58
2022-11-20T22:18:06.853Z,467.09
2022-11-20T22:20:14.525Z,454.22
2022-11-20T22:22:20.325Z,454.27
2022-11-20T22:24:26.897Z,450.00
2022-11-20T22:26:40.709Z,458.10
2022-11-20T22:28:50.626Z,434.32
2022-11-20T22:31:01.750Z,429.67
2022-11-20T22:33:17.771Z,449.40
2022-11-20T22:35:29.486Z,432.11
2022-11-20T22:37:35.299Z,418.87
2022-11-20T22:39:42.024Z,408.27
2022-11-20T22:41:47.839Z,418.56
2022-11-20T22:43:58.318Z,425.37
2022-11-20T22:46:14.737Z,424.41
2022-11-20T22:48:20.480Z,392.95
2022-11-20T22:50:26.278Z,385.69
2022-11-20T22:52:32.982Z,400.96
2022-11-20T22:54:38.908Z,397.93
2022-11-20T22:56:45.815Z,400.34
2022-11-20T22:58:55.519Z,411.59
2022-11-20T23:01:17.275Z,391.60
2022-11-20T23:03:23.173Z,409.58
2022-11-20T23:05:29.899Z,402.00
2022-11-20T23:07:40.726Z,424.31
2022-11-20T23:09:50.153Z,419.71
2022-11-20T23:11:56.820Z,417.00
2022-11-20T23:14:06.610Z,408.81
2022-11-20T23:16:18.149Z,406.78
2022-11-20T23:18:32.890Z,407.55
2022-11-20T23:20:40.677Z,400.34
2022-11-20T23:22:46.521Z,409.92
2022-11-20T23:24:53.211Z,393.03
2022-11-20T23:26:58.940Z,386.78
2022-11-20T23:29:05.915Z,378.11
2022-11-20T23:31:17.544Z,383.38
2022-11-20T23:33:23.255Z,369.35
2022-11-20T23:35:28.962Z,379.61
2022-11-20T23:37:36.134Z,403.45
2022-11-20T23:39:41.889Z,415.06
2022-11-20T23:41:47.662Z,419.89
2022-11-20T23:43:55.057Z,421.31
2022-11-20T23:46:06.230Z,434.01
2022-11-20T23:48:15.802Z,400.35
2022-11-20T23:50:22.283Z,372.50
2022-11-20T23:52:28.005Z,387.80
2022-11-20T23:54:33.667Z,371.48
2022-11-20T23:56:40.202Z,357.59
2022-11-20T23:58:46.758Z,370.04
